Time;durP1;ratioP1;P1;durP2;ratioP2;P2;SDS_P1;SDS_P2;PMS_P1;PMS_P2;Temp;Humidity;BMP_temperature;BMP_pressure;BME280_temperature;BME280_humidity;BME280_pressure;Samples;Min_cycle;Max_cycle;Signal;HPM_P1;HPM_P2
2022/07/30 00:01:06;;;;;;;7.03;4.13;;;16.80;99.90;;;;;;5047941;28;20060;-60
2022/07/30 00:03:32;;;;;;;7.95;4.72;;;16.80;99.90;;;;;;5047645;28;20459;-60
2022/07/30 00:05:58;;;;;;;7.88;5.30;;;16.70;99.90;;;;;;5048158;28;20037;-60
2022/07/30 00:08:23;;;;;;;6.03;5.05;;;16.70;99.90;;;;;;5047135;28;20526;-60
2022/07/30 00:10:50;;;;;;;8.02;4.93;;;16.70;99.90;;;;;;5046701;28;20048;-60
2022/07/30 00:13:16;;;;;;;6.20;5.00;;;16.70;99.90;;;;;;5047605;28;20033;-60
2022/07/30 00:15:42;;;;;;;9.65;5.75;;;16.60;99.90;;;;;;5047734;28;20037;-60
2022/07/30 00:18:08;;;;;;;6.28;4.65;;;16.50;99.90;;;;;;5046903;28;20044;-60
2022/07/30 00:20:33;;;;;;;8.20;5.47;;;16.60;99.90;;;;;;5047615;28;20049;-60
2022/07/30 00:23:03;;;;;;;5.40;4.63;;;16.60;99.90;;;;;;5047730;28;20045;-60
2022/07/30 00:25:28;;;;;;;5.75;5.10;;;16.60;99.90;;;;;;5047243;28;20063;-60
2022/07/30 00:27:54;;;;;;;8.05;5.50;;;16.60;99.90;;;;;;5047013;28;20650;-60
2022/07/30 00:30:20;;;;;;;7.43;6.00;;;16.50;99.90;;;;;;5047214;28;20079;-60
2022/07/30 00:32:46;;;;;;;6.13;5.55;;;16.50;99.90;;;;;;5046548;28;20408;-60
2022/07/30 00:35:12;;;;;;;7.82;5.60;;;16.50;99.90;;;;;;5047258;28;20041;-60
2022/07/30 00:37:38;;;;;;;6.20;5.57;;;16.60;99.90;;;;;;5046646;28;20041;-60
2022/07/30 00:40:06;;;;;;;6.38;5.03;;;16.60;99.90;;;;;;5047050;28;20052;-60
2022/07/30 00:42:37;;;;;;;6.80;6.10;;;16.50;99.90;;;;;;5047303;28;20060;-60
2022/07/30 00:45:04;;;;;;;7.13;5.88;;;16.50;99.90;;;;;;5046197;28;20055;-60
2022/07/30 00:47:30;;;;;;;9.23;6.20;;;16.40;99.90;;;;;;5047458;28;20530;-60
2022/07/30 00:49:56;;;;;;;7.30;5.50;;;16.40;99.90;;;;;;5046887;28;20084;-60
2022/07/30 00:52:21;;;;;;;9.82;6.93;;;16.30;99.90;;;;;;5046228;28;20052;-60
2022/07/30 00:54:47;;;;;;;10.98;6.15;;;16.30;99.90;;;;;;5046384;28;20067;-60
2022/07/30 00:57:12;;;;;;;7.10;5.32;;;16.20;99.90;;;;;;5046839;28;20120;-60
2022/07/30 00:59:38;;;;;;;9.68;6.18;;;16.20;99.90;;;;;;5045811;28;20114;-60
2022/07/30 01:02:03;;;;;;;8.00;5.38;;;16.20;99.90;;;;;;5046685;28;20052;-60
2022/07/30 01:04:29;;;;;;;12.45;5.78;;;16.20;99.90;;;;;;5047172;28;20040;-60
2022/07/30 01:06:55;;;;;;;6.45;5.28;;;16.10;99.90;;;;;;5045509;28;20080;-60
2022/07/30 01:09:21;;;;;;;8.85;6.15;;;16.10;99.90;;;;;;5046525;28;20159;-60
2022/07/30 01:11:47;;;;;;;7.13;6.18;;;16.10;99.90;;;;;;5046396;28;20118;-60
2022/07/30 01:14:12;;;;;;;8.27;5.82;;;16.10;99.90;;;;;;5045953;28;20052;-60
2022/07/30 01:16:41;;;;;;;7.30;5.70;;;16.10;99.90;;;;;;5046471;28;20044;-60
2022/07/30 01:22:25;;;;;;;9.02;5.60;;;16.00;99.90;;;;;;5044893;28;20072;-60
2022/07/30 01:25:19;;;;;;;7.60;5.38;;;16.00;99.90;;;;;;5046274;28;20080;-60
2022/07/30 01:27:47;;;;;;;5.97;5.32;;;15.90;99.90;;;;;;5046202;28;20052;-60
2022/07/30 01:30:16;;;;;;;7.95;5.55;;;16.10;99.90;;;;;;5046300;28;20404;-60
2022/07/30 01:32:44;;;;;;;8.35;5.47;;;15.80;99.90;;;;;;5046635;28;20048;-60
2022/07/30 01:35:12;;;;;;;6.85;5.63;;;15.70;99.90;;;;;;5045418;28;20045;-60
2022/07/30 01:37:39;;;;;;;6.20;5.38;;;15.60;99.90;;;;;;5046233;28;20506;-60
2022/07/30 01:40:06;;;;;;;8.60;5.55;;;15.60;99.90;;;;;;5061536;28;20120;-60
2022/07/30 01:42:33;;;;;;;5.75;4.82;;;15.60;99.90;;;;;;5046260;28;20033;-60
2022/07/30 01:45:00;;;;;;;7.10;5.70;;;15.50;99.90;;;;;;5046423;28;20049;-60
2022/07/30 01:47:27;;;;;;;6.57;5.40;;;15.60;99.90;;;;;;5046530;28;20163;-60
2022/07/30 01:49:54;;;;;;;6.68;5.03;;;15.40;99.90;;;;;;5045440;28;20048;-60
2022/07/30 01:52:22;;;;;;;5.97;5.10;;;15.50;99.90;;;;;;5046394;28;20112;-60
2022/07/30 01:54:50;;;;;;;8.07;5.53;;;15.50;99.90;;;;;;5045948;28;20083;-60
2022/07/30 01:57:18;;;;;;;6.43;5.78;;;15.50;99.90;;;;;;5045533;28;20033;-60
2022/07/30 01:59:47;;;;;;;5.88;5.20;;;15.40;99.90;;;;;;5046274;28;20057;-60
2022/07/30 02:02:13;;;;;;;6.10;5.55;;;15.50;99.90;;;;;;5045669;28;20053;-60
2022/07/30 02:04:39;;;;;;;8.25;5.32;;;15.60;99.90;;;;;;5045079;28;20053;-60
2022/07/30 02:07:21;;;;;;;6.35;5.75;;;15.40;99.90;;;;;;5046010;28;20049;-60
2022/07/30 02:09:56;;;;;;;6.80;5.65;;;15.30;99.90;;;;;;5045177;28;20064;-60
2022/07/30 02:12:28;;;;;;;4.30;3.90;;;15.30;99.90;;;;;;5046333;28;20041;-60
2022/07/30 02:15:09;;;;;;;4.88;4.47;;;15.30;99.90;;;;;;5046103;28;20511;-60
2022/07/30 02:18:00;;;;;;;3.58;3.28;;;15.20;99.90;;;;;;5045354;28;20128;-60
2022/07/30 02:20:28;;;;;;;5.80;3.72;;;15.10;99.90;;;;;;5045925;28;20084;-60
2022/07/30 02:22:58;;;;;;;4.07;3.70;;;15.10;99.90;;;;;;5046078;28;20045;-60
2022/07/30 02:25:26;;;;;;;4.07;3.78;;;15.10;99.90;;;;;;5045271;28;20136;-60
2022/07/30 02:27:55;;;;;;;4.18;3.67;;;15.00;99.90;;;;;;5045583;28;20489;-60
2022/07/30 02:30:25;;;;;;;5.05;4.55;;;15.00;99.90;;;;;;5045246;28;20094;-60
2022/07/30 02:32:57;;;;;;;5.57;4.45;;;14.90;99.90;;;;;;5048190;28;20073;-59
2022/07/30 02:35:25;;;;;;;5.40;5.00;;;14.90;99.90;;;;;;5049690;28;20060;-59
2022/07/30 02:37:53;;;;;;;4.78;4.38;;;14.90;99.90;;;;;;5048640;28;20057;-60
2022/07/30 02:40:20;;;;;;;4.97;4.45;;;15.00;99.90;;;;;;5049546;28;20041;-60
2022/07/30 02:42:49;;;;;;;4.90;4.45;;;15.00;99.90;;;;;;5048975;28;20041;-60
2022/07/30 02:45:18;;;;;;;5.38;4.43;;;14.90;99.90;;;;;;5048401;28;20037;-60
2022/07/30 02:47:49;;;;;;;5.65;5.15;;;14.90;99.90;;;;;;5049359;28;20452;-60
2022/07/30 02:50:16;;;;;;;5.40;4.97;;;14.80;99.90;;;;;;5049032;28;20041;-60
2022/07/30 02:52:43;;;;;;;10.80;5.57;;;14.80;99.90;;;;;;5048632;28;20043;-60
2022/07/30 02:55:11;;;;;;;6.68;5.97;;;14.70;99.90;;;;;;5048900;28;20131;-60
2022/07/30 02:57:40;;;;;;;7.25;5.95;;;14.80;99.90;;;;;;5048661;28;20071;-60
2022/07/30 03:00:07;;;;;;;8.43;5.95;;;14.80;99.90;;;;;;5048281;28;20092;-60
2022/07/30 03:02:33;;;;;;;11.80;6.45;;;14.80;99.90;;;;;;5049085;28;20040;-60
2022/07/30 03:05:03;;;;;;;8.70;6.00;;;14.80;99.90;;;;;;5049185;28;20044;-60
2022/07/30 03:07:29;;;;;;;8.07;6.40;;;14.80;99.90;;;;;;5047181;28;20068;-60
2022/07/30 03:09:56;;;;;;;8.65;6.60;;;14.80;99.90;;;;;;5048521;28;20044;-60
2022/07/30 03:12:22;;;;;;;7.07;5.90;;;14.80;99.90;;;;;;5048028;28;20573;-60
2022/07/30 03:14:49;;;;;;;7.40;6.70;;;14.80;99.90;;;;;;5048482;28;20091;-60
2022/07/30 03:17:16;;;;;;;9.30;6.68;;;14.80;99.90;;;;;;5048641;28;20549;-60
2022/07/30 03:19:43;;;;;;;7.40;6.70;;;14.70;99.90;;;;;;5048022;28;20067;-60
2022/07/30 03:22:10;;;;;;;7.90;7.00;;;14.70;99.90;;;;;;5048503;28;20060;-60
2022/07/30 03:24:37;;;;;;;7.53;6.32;;;14.70;99.90;;;;;;5048772;28;20063;-60
2022/07/30 03:27:05;;;;;;;8.45;6.22;;;14.70;99.90;;;;;;5047405;28;20041;-60
2022/07/30 03:29:31;;;;;;;9.38;7.97;;;14.60;99.90;;;;;;5049136;28;20091;-60
2022/07/30 03:31:58;;;;;;;8.52;7.05;;;14.60;99.90;;;;;;5048252;28;20067;-60
2022/07/30 03:34:24;;;;;;;10.85;7.20;;;14.60;99.90;;;;;;5047892;28;20084;-60
2022/07/30 03:36:50;;;;;;;9.00;7.78;;;14.60;99.90;;;;;;5048071;28;20122;-59
2022/07/30 03:39:17;;;;;;;8.50;7.70;;;14.60;99.90;;;;;;5048015;28;20048;-60
2022/07/30 03:41:44;;;;;;;8.52;7.82;;;14.70;99.90;;;;;;5047721;28;20040;-60
2022/07/30 03:44:10;;;;;;;8.45;7.57;;;14.50;99.90;;;;;;5047140;28;20048;-60
2022/07/30 03:46:36;;;;;;;8.73;7.85;;;14.50;99.90;;;;;;5048266;28;20045;-60
2022/07/30 03:49:04;;;;;;;9.57;7.53;;;14.50;99.90;;;;;;5047548;28;20044;-60
2022/07/30 03:51:35;;;;;;;8.00;6.47;;;14.50;99.90;;;;;;5048554;28;20434;-60
2022/07/30 03:54:03;;;;;;;9.82;8.40;;;14.50;99.90;;;;;;5048350;28;20073;-60
2022/07/30 03:56:29;;;;;;;10.75;7.88;;;14.40;99.90;;;;;;5047742;28;20214;-60
2022/07/30 03:58:54;;;;;;;8.55;7.50;;;14.40;99.90;;;;;;5047662;28;20542;-60
2022/07/30 04:01:26;;;;;;;8.50;7.70;;;14.40;99.90;;;;;;5047732;28;20045;-60
2022/07/30 04:03:52;;;;;;;9.80;7.55;;;14.40;99.90;;;;;;5046924;28;20037;-60
2022/07/30 04:06:18;;;;;;;11.63;8.07;;;14.40;99.90;;;;;;5047670;28;20113;-60
2022/07/30 04:08:43;;;;;;;10.32;9.02;;;14.40;99.90;;;;;;5046819;28;20049;-60
2022/07/30 04:11:09;;;;;;;8.82;8.02;;;14.40;99.90;;;;;;5047360;28;20057;-60
2022/07/30 04:13:34;;;;;;;10.63;8.48;;;14.40;99.90;;;;;;5047931;28;20048;-60
2022/07/30 04:16:09;;;;;;;11.35;8.80;;;14.40;99.90;;;;;;5047292;28;20084;-60
2022/07/30 04:18:39;;;;;;;8.93;8.13;;;14.40;99.90;;;;;;5047488;28;20045;-60
2022/07/30 04:21:07;;;;;;;9.75;8.07;;;14.40;99.90;;;;;;5047095;28;20063;-60
2022/07/30 04:23:33;;;;;;;9.52;8.10;;;14.40;99.90;;;;;;5046818;28;20788;-60
2022/07/30 04:26:00;;;;;;;10.82;8.10;;;14.40;99.90;;;;;;5048056;28;20052;-60
2022/07/30 04:28:27;;;;;;;9.07;7.70;;;14.30;99.90;;;;;;5047253;28;20508;-60
2022/07/30 04:30:53;;;;;;;12.68;8.27;;;14.30;99.90;;;;;;5046592;28;20056;-60
2022/07/30 04:33:19;;;;;;;11.80;9.07;;;14.30;99.90;;;;;;5047288;28;20045;-60
2022/07/30 04:35:45;;;;;;;9.07;8.18;;;14.40;99.90;;;;;;5047360;28;20090;-60
2022/07/30 04:38:13;;;;;;;8.88;7.72;;;14.30;99.90;;;;;;5046544;28;20041;-60
2022/07/30 04:40:39;;;;;;;8.98;7.85;;;14.40;99.90;;;;;;5047263;28;20850;-60
2022/07/30 04:43:05;;;;;;;8.65;7.68;;;14.30;99.90;;;;;;5047149;28;20033;-60
2022/07/30 04:45:31;;;;;;;9.60;7.63;;;14.40;99.90;;;;;;5046917;28;20051;-60
2022/07/30 04:47:57;;;;;;;9.52;8.02;;;14.40;99.90;;;;;;5047166;28;20045;-60
2022/07/30 04:50:26;;;;;;;8.23;7.43;;;14.70;99.90;;;;;;5046890;28;20934;-59
2022/07/30 04:52:54;;;;;;;8.52;7.68;;;14.50;99.90;;;;;;5045357;28;20132;-60
2022/07/30 04:55:21;;;;;;;10.02;7.57;;;14.40;99.90;;;;;;5046297;28;20053;-60
2022/07/30 04:57:50;;;;;;;9.80;8.30;;;14.40;99.90;;;;;;5046166;28;20618;-60
2022/07/30 05:00:16;;;;;;;12.07;8.73;;;14.70;99.90;;;;;;5046735;28;20528;-59
2022/07/30 05:02:43;;;;;;;13.32;8.95;;;14.50;99.90;;;;;;5047007;28;20460;-60
2022/07/30 05:05:11;;;;;;;11.32;9.35;;;14.60;99.90;;;;;;5045732;28;20036;-60
2022/07/30 05:07:38;;;;;;;11.02;10.02;;;14.60;99.90;;;;;;5046776;28;20580;-60
2022/07/30 05:10:05;;;;;;;11.05;9.65;;;14.70;99.90;;;;;;5046464;28;20044;-60
2022/07/30 05:12:37;;;;;;;10.63;9.60;;;14.70;99.90;;;;;;5046455;28;20057;-60
2022/07/30 05:15:05;;;;;;;14.38;10.13;;;14.70;99.90;;;;;;5046674;28;20073;-60
2022/07/30 05:17:31;;;;;;;11.70;8.80;;;14.80;99.90;;;;;;5046846;28;20091;-60
2022/07/30 05:19:56;;;;;;;12.05;10.00;;;14.90;99.90;;;;;;5045852;28;20073;-60
2022/07/30 05:22:24;;;;;;;10.27;8.82;;;14.80;99.90;;;;;;5046711;28;20067;-60
2022/07/30 05:24:50;;;;;;;10.43;9.32;;;14.90;99.90;;;;;;5046257;28;20068;-60
2022/07/30 05:27:15;;;;;;;10.02;9.07;;;14.90;99.90;;;;;;5046018;28;20431;-60
2022/07/30 05:29:41;;;;;;;11.60;10.45;;;15.00;99.90;;;;;;5046449;28;20476;-60
2022/07/30 05:32:06;;;;;;;10.95;9.68;;;15.00;99.90;;;;;;5046231;28;20088;-60
2022/07/30 05:34:32;;;;;;;10.98;9.75;;;15.00;99.90;;;;;;5046403;28;20041;-60
2022/07/30 05:36:58;;;;;;;13.68;10.15;;;15.00;99.90;;;;;;5046641;28;20079;-60
2022/07/30 05:39:23;;;;;;;13.82;10.43;;;15.00;99.90;;;;;;5046399;28;20498;-60
2022/07/30 05:41:49;;;;;;;10.93;9.60;;;15.10;99.90;;;;;;5045634;28;20124;-60
2022/07/30 05:44:15;;;;;;;10.52;9.52;;;15.10;99.90;;;;;;5046272;28;20043;-60
2022/07/30 05:46:41;;;;;;;16.58;11.38;;;15.10;99.90;;;;;;5046509;28;20159;-60
2022/07/30 05:49:07;;;;;;;11.43;9.52;;;15.20;99.90;;;;;;5045489;28;20040;-60
2022/07/30 05:51:32;;;;;;;11.88;10.55;;;15.60;99.90;;;;;;5046273;28;20598;-60
2022/07/30 05:53:58;;;;;;;11.05;10.00;;;15.30;99.90;;;;;;5046719;28;20123;-60
2022/07/30 05:56:24;;;;;;;12.90;10.98;;;15.30;99.90;;;;;;5045486;28;20053;-60
2022/07/30 05:58:49;;;;;;;12.98;11.15;;;15.40;99.90;;;;;;5045790;28;20049;-59
2022/07/30 06:01:15;;;;;;;11.27;10.27;;;15.60;99.90;;;;;;5045271;28;20535;-60
2022/07/30 06:03:40;;;;;;;14.10;11.30;;;15.50;99.90;;;;;;5046299;28;20040;-60
2022/07/30 06:06:06;;;;;;;14.57;11.63;;;15.60;99.90;;;;;;5046117;28;20049;-60
2022/07/30 06:08:33;;;;;;;11.27;10.10;;;15.60;99.90;;;;;;5049259;28;20123;-60
2022/07/30 06:10:58;;;;;;;11.18;10.15;;;15.70;99.90;;;;;;5050390;28;20064;-60
2022/07/30 06:13:24;;;;;;;15.45;9.93;;;15.80;99.90;;;;;;5049913;28;20041;-61
2022/07/30 06:15:50;;;;;;;9.05;8.25;;;15.90;99.90;;;;;;5048972;28;20124;-60
2022/07/30 06:18:15;;;;;;;10.80;9.02;;;16.00;99.90;;;;;;5050117;28;20059;-60
2022/07/30 06:20:41;;;;;;;12.25;9.30;;;16.10;99.90;;;;;;5050102;28;20045;-60
2022/07/30 06:23:07;;;;;;;10.55;9.35;;;16.20;99.90;;;;;;5049068;28;20080;-61
2022/07/30 06:25:32;;;;;;;9.52;8.30;;;16.20;99.90;;;;;;5050098;28;20403;-60
2022/07/30 06:27:58;;;;;;;9.98;8.23;;;16.30;99.90;;;;;;5049908;28;20049;-60
2022/07/30 06:30:24;;;;;;;11.00;8.18;;;16.40;99.90;;;;;;5048855;28;20511;-60
2022/07/30 06:32:49;;;;;;;13.77;9.18;;;16.50;99.90;;;;;;5049654;28;20029;-60
2022/07/30 06:35:15;;;;;;;9.82;8.82;;;16.60;99.90;;;;;;5049695;28;20668;-60
2022/07/30 06:37:41;;;;;;;11.80;8.77;;;16.70;99.90;;;;;;5048884;28;20373;-60
2022/07/30 06:40:08;;;;;;;9.50;8.50;;;16.70;99.90;;;;;;5049474;28;20060;-60
2022/07/30 06:42:33;;;;;;;12.13;9.70;;;16.80;99.90;;;;;;5049466;28;20467;-61
2022/07/30 06:44:59;;;;;;;10.77;9.57;;;16.80;99.90;;;;;;5048936;28;20041;-60
2022/07/30 06:47:27;;;;;;;9.82;8.52;;;16.90;99.90;;;;;;5049436;28;20073;-60
2022/07/30 06:49:53;;;;;;;12.98;9.48;;;17.00;99.90;;;;;;5049162;28;20733;-60
2022/07/30 06:52:19;;;;;;;11.43;10.00;;;17.10;99.90;;;;;;5048776;28;20044;-60
2022/07/30 06:54:46;;;;;;;13.73;10.50;;;17.20;99.90;;;;;;5049376;28;20051;-61
2022/07/30 06:57:11;;;;;;;11.43;9.93;;;17.30;99.90;;;;;;5049071;28;20044;-60
2022/07/30 06:59:37;;;;;;;11.07;9.13;;;17.40;99.90;;;;;;5048300;28;20069;-60
2022/07/30 07:02:02;;;;;;;12.25;9.65;;;17.50;99.90;;;;;;5049310;28;20044;-60
2022/07/30 07:04:28;;;;;;;15.43;9.63;;;17.50;99.90;;;;;;5049048;28;20545;-61
2022/07/30 07:06:54;;;;;;;10.02;8.98;;;17.70;99.90;;;;;;5049001;28;20490;-61
2022/07/30 07:09:19;;;;;;;9.38;8.35;;;17.70;99.90;;;;;;5048907;28;20041;-60
2022/07/30 07:11:45;;;;;;;12.15;8.60;;;17.80;99.90;;;;;;5048200;28;20287;-60
2022/07/30 07:14:10;;;;;;;11.05;8.18;;;17.90;99.90;;;;;;5048677;28;20056;-60
2022/07/30 07:16:36;;;;;;;11.63;7.93;;;18.00;99.90;;;;;;5049070;28;20052;-61
2022/07/30 07:19:02;;;;;;;11.32;7.75;;;18.10;99.90;;;;;;5046339;28;20125;-60
2022/07/30 07:21:27;;;;;;;14.50;8.20;;;18.20;99.90;;;;;;5048932;28;20049;-60
2022/07/30 07:23:53;;;;;;;12.70;7.38;;;18.30;99.90;;;;;;5052457;28;20052;-61
2022/07/30 07:26:18;;;;;;;11.50;7.85;;;18.40;99.90;;;;;;5056151;28;20076;-61
2022/07/30 07:28:44;;;;;;;11.00;7.68;;;18.40;99.90;;;;;;5056801;28;20064;-61
2022/07/30 07:31:10;;;;;;;9.27;6.70;;;18.60;99.90;;;;;;5050870;28;20048;-61
2022/07/30 07:33:36;;;;;;;12.75;6.78;;;18.80;99.90;;;;;;5048955;28;20033;-61
2022/07/30 07:36:02;;;;;;;10.43;6.38;;;18.80;99.90;;;;;;5048895;28;20080;-61
2022/07/30 07:38:28;;;;;;;14.85;7.07;;;18.90;99.90;;;;;;5049120;28;20115;-61
2022/07/30 07:40:54;;;;;;;14.68;7.90;;;19.10;99.90;;;;;;5047698;28;20132;-61
2022/07/30 07:43:20;;;;;;;8.57;6.60;;;19.10;99.90;;;;;;5048068;28;20471;-61
2022/07/30 07:45:45;;;;;;;7.60;6.18;;;19.20;99.90;;;;;;5048205;28;20045;-61
2022/07/30 07:48:11;;;;;;;13.02;6.55;;;19.30;99.90;;;;;;5047702;28;20052;-61
2022/07/30 07:50:37;;;;;;;10.02;5.85;;;19.40;99.90;;;;;;5048400;28;20136;-61
2022/07/30 07:53:03;;;;;;;12.20;6.13;;;19.50;99.90;;;;;;5047995;28;20128;-61
2022/07/30 07:55:29;;;;;;;9.23;5.32;;;19.60;99.90;;;;;;5047636;28;20080;-61
2022/07/30 07:57:55;;;;;;;11.85;6.03;;;19.60;99.90;;;;;;5047393;28;20044;-61
2022/07/30 08:00:20;;;;;;;7.70;4.82;;;19.80;99.90;;;;;;5048177;28;20048;-61
2022/07/30 08:02:47;;;;;;;9.20;5.60;;;19.90;99.90;;;;;;5046869;28;20033;-61
2022/07/30 08:05:13;;;;;;;8.82;4.53;;;19.80;99.90;;;;;;5048080;28;20040;-61
2022/07/30 08:07:39;;;;;;;10.25;5.35;;;20.00;99.90;;;;;;5047637;28;20041;-61
2022/07/30 08:10:06;;;;;;;13.10;5.03;;;20.00;99.90;;;;;;5046797;28;20135;-61
2022/07/30 08:12:32;;;;;;;8.75;4.80;;;20.00;99.90;;;;;;5047753;28;20041;-60
2022/07/30 08:14:57;;;;;;;8.30;5.03;;;20.00;99.90;;;;;;5047027;28;20776;-61
2022/07/30 08:17:23;;;;;;;9.80;4.38;;;20.00;99.90;;;;;;5047660;28;20049;-61
2022/07/30 08:19:49;;;;;;;8.60;4.35;;;19.90;99.90;;;;;;5047175;28;20615;-61
2022/07/30 08:22:15;;;;;;;8.88;4.22;;;19.90;99.90;;;;;;5046748;28;20048;-61
2022/07/30 08:24:40;;;;;;;7.05;4.47;;;20.00;99.90;;;;;;5047257;28;20095;-61
2022/07/30 08:27:06;;;;;;;8.25;4.75;;;20.10;99.90;;;;;;5046693;28;20046;-61
2022/07/30 08:29:32;;;;;;;11.30;4.32;;;20.30;99.90;;;;;;5047018;28;20045;-61
2022/07/30 08:31:58;;;;;;;20.95;4.25;;;20.40;99.90;;;;;;5029455;28;20051;-61
2022/07/30 08:34:23;;;;;;;8.02;3.97;;;20.40;99.90;;;;;;5047024;28;20123;-61
2022/07/30 08:36:49;;;;;;;4.22;3.30;;;20.50;99.90;;;;;;5046136;28;20048;-61
2022/07/30 08:39:15;;;;;;;6.10;3.13;;;20.50;99.90;;;;;;5046997;28;20094;-61
2022/07/30 08:41:41;;;;;;;5.28;3.28;;;20.70;99.90;;;;;;5046971;28;20048;-61
2022/07/30 08:44:11;;;;;;;7.20;4.28;;;20.80;99.90;;;;;;5045843;28;20415;-61
2022/07/30 08:46:41;;;;;;;4.05;3.50;;;20.80;99.90;;;;;;5047215;28;20061;-61
2022/07/30 08:49:08;;;;;;;6.70;3.40;;;20.70;99.90;;;;;;5046724;28;20557;-61
2022/07/30 08:51:34;;;;;;;5.15;3.33;;;20.60;99.90;;;;;;5046204;28;20072;-61
2022/07/30 08:54:01;;;;;;;15.13;3.42;;;20.60;99.90;;;;;;5047100;28;20396;-61
2022/07/30 08:56:27;;;;;;;8.65;3.55;;;20.70;99.90;;;;;;5046507;28;20056;-61
2022/07/30 08:58:54;;;;;;;6.50;3.88;;;20.80;99.90;;;;;;5045755;28;20827;-61
2022/07/30 09:01:21;;;;;;;13.02;3.90;;;20.90;99.90;;;;;;5046702;28;20056;-61
2022/07/30 09:03:47;;;;;;;7.80;3.85;;;21.10;99.90;;;;;;5046640;28;20076;-60
2022/07/30 09:06:13;;;;;;;5.60;3.35;;;21.20;99.90;;;;;;5045951;28;20126;-61
2022/07/30 09:08:39;;;;;;;6.82;3.42;;;21.20;99.90;;;;;;5046609;28;20099;-61
2022/07/30 09:11:05;;;;;;;5.65;3.03;;;21.20;99.90;;;;;;5045789;28;20093;-61
2022/07/30 09:13:36;;;;;;;6.82;3.10;;;21.20;99.90;;;;;;5047144;28;20408;-61
2022/07/30 09:16:03;;;;;;;5.38;2.58;;;21.20;99.90;;;;;;5047016;28;20072;-61
2022/07/30 09:18:39;;;;;;;7.22;3.28;;;21.30;99.90;;;;;;5046405;28;20049;-61
2022/07/30 09:21:22;;;;;;;4.32;3.00;;;21.40;99.90;;;;;;5046201;28;20148;-61
2022/07/30 09:24:00;;;;;;;4.97;3.10;;;21.40;99.90;;;;;;5046492;28;20045;-61
2022/07/30 09:26:28;;;;;;;10.43;3.60;;;21.40;99.90;;;;;;5045897;28;20048;-61
2022/07/30 09:28:54;;;;;;;11.27;3.22;;;21.50;99.90;;;;;;5046311;28;20064;-61
2022/07/30 09:31:20;;;;;;;5.55;3.00;;;21.60;99.90;;;;;;5046377;28;20067;-60
2022/07/30 09:33:46;;;;;;;7.07;2.67;;;21.60;99.90;;;;;;5045074;28;20552;-61
2022/07/30 09:36:15;;;;;;;4.90;3.03;;;21.70;99.90;;;;;;5045413;28;20124;-61
2022/07/30 09:38:48;;;;;;;4.28;2.13;;;21.80;99.90;;;;;;5046519;28;20041;-61
2022/07/30 09:41:25;;;;;;;4.43;3.25;;;21.90;99.90;;;;;;5045867;28;20468;-61
2022/07/30 09:43:51;;;;;;;5.45;2.97;;;22.00;99.90;;;;;;5050309;28;20037;-61
2022/07/30 09:46:17;;;;;;;7.47;2.85;;;22.10;99.90;;;;;;5049818;28;20045;-61
2022/07/30 09:48:45;;;;;;;4.57;2.58;;;22.20;99.90;;;;;;5050565;28;20396;-61
2022/07/30 09:51:11;;;;;;;5.40;2.83;;;22.30;99.90;;;;;;5049008;28;20049;-61
2022/07/30 09:53:55;;;;;;;4.72;2.95;;;22.30;99.90;;;;;;5049872;28;20140;-61
2022/07/30 09:56:27;;;;;;;4.32;2.85;;;22.40;99.90;;;;;;5050332;28;20401;-60
2022/07/30 09:58:53;;;;;;;3.47;2.42;;;22.40;99.90;;;;;;5049602;28;20340;-61
2022/07/30 10:01:19;;;;;;;3.58;2.22;;;22.40;99.90;;;;;;5049527;28;20052;-61
2022/07/30 10:03:45;;;;;;;4.05;2.50;;;22.50;99.90;;;;;;5050365;28;20052;-61
2022/07/30 10:06:11;;;;;;;5.32;2.92;;;22.60;99.90;;;;;;5050151;28;20037;-61
2022/07/30 10:08:50;;;;;;;3.17;2.55;;;22.60;99.90;;;;;;5049113;28;20056;-61
2022/07/30 10:11:21;;;;;;;4.05;2.65;;;22.50;99.90;;;;;;5049847;28;20044;-61
2022/07/30 10:13:48;;;;;;;4.90;2.33;;;22.50;99.90;;;;;;5050059;28;20460;-61
2022/07/30 10:16:14;;;;;;;5.85;3.38;;;22.50;99.90;;;;;;5049344;28;20083;-61
2022/07/30 10:18:41;;;;;;;2.83;2.20;;;22.60;99.90;;;;;;5049970;28;20049;-61
2022/07/30 10:21:07;;;;;;;6.32;2.80;;;22.80;99.90;;;;;;5049713;28;20037;-61
2022/07/30 10:23:34;;;;;;;4.57;2.65;;;22.90;99.90;;;;;;5049129;28;20037;-61
2022/07/30 10:26:01;;;;;;;3.60;1.98;;;22.90;99.90;;;;;;5049818;28;20048;-61
2022/07/30 10:28:29;;;;;;;4.18;2.40;;;22.90;99.90;;;;;;5049197;28;20127;-61
2022/07/30 10:30:56;;;;;;;3.88;2.25;;;22.90;99.90;;;;;;5049359;28;20040;-61
2022/07/30 10:33:27;;;;;;;4.35;2.00;;;22.80;99.90;;;;;;5049808;28;20041;-60
2022/07/30 10:35:53;;;;;;;6.03;2.65;;;22.80;99.90;;;;;;5048545;28;20052;-61
2022/07/30 10:38:21;;;;;;;6.75;3.00;;;22.90;99.90;;;;;;5049611;28;20047;-61
2022/07/30 10:41:00;;;;;;;5.53;2.40;;;23.00;99.90;;;;;;5049350;28;20060;-61
2022/07/30 10:43:28;;;;;;;6.57;2.70;;;22.90;99.90;;;;;;5048991;28;20048;-61
2022/07/30 10:46:24;;;;;;;6.88;3.05;;;22.80;99.90;;;;;;5049376;28;20098;-61
2022/07/30 10:48:49;;;;;;;4.93;2.35;;;22.60;99.90;;;;;;5049233;28;20060;-61
2022/07/30 10:51:15;;;;;;;3.58;2.35;;;22.60;99.90;;;;;;5047165;28;20049;-61
2022/07/30 10:53:47;;;;;;;4.00;2.60;;;22.60;99.90;;;;;;5049263;28;20041;-61
2022/07/30 10:56:20;;;;;;;3.20;2.05;;;22.70;99.90;;;;;;5049459;28;20041;-61
2022/07/30 10:59:05;;;;;;;3.95;2.00;;;22.90;99.90;;;;;;5048356;28;20068;-61
2022/07/30 11:02:07;;;;;;;9.00;2.40;;;23.10;99.90;;;;;;5049822;28;20041;-61
2022/07/30 11:04:34;;;;;;;2.85;2.33;;;23.10;99.90;;;;;;5048430;28;20157;-61
2022/07/30 11:07:21;;;;;;;4.47;1.95;;;22.90;99.90;;;;;;5049236;28;20119;-61
2022/07/30 11:09:52;;;;;;;4.68;2.42;;;22.90;99.90;;;;;;5048900;28;20048;-61
2022/07/30 11:12:44;;;;;;;4.15;1.95;;;22.90;99.90;;;;;;5048420;28;20045;-61
2022/07/30 11:15:14;;;;;;;3.47;1.80;;;23.20;99.90;;;;;;5048499;28;20099;-61
2022/07/30 11:18:09;;;;;;;4.88;1.95;;;23.30;99.90;;;;;;5048160;28;20071;-61
2022/07/30 11:20:35;;;;;;;8.45;2.22;;;23.50;99.90;;;;;;5049162;28;20605;-61
2022/07/30 11:23:18;;;;;;;2.65;1.80;;;23.70;99.90;;;;;;5049087;28;20052;-61
2022/07/30 11:25:46;;;;;;;3.83;1.80;;;23.90;99.90;;;;;;5048013;28;20049;-61
2022/07/30 11:28:43;;;;;;;4.63;2.40;;;24.00;99.90;;;;;;5048531;28;20037;-61
2022/07/30 11:31:30;;;;;;;3.35;1.73;;;24.10;99.90;;;;;;5048330;28;20045;-61
2022/07/30 11:34:18;;;;;;;8.82;2.17;;;23.90;99.90;;;;;;5046277;28;20412;-61
2022/07/30 11:37:06;;;;;;;6.53;2.25;;;23.80;99.90;;;;;;5048210;28;20492;-61
2022/07/30 11:39:54;;;;;;;4.93;2.30;;;24.00;99.90;;;;;;5062902;28;20427;-61
2022/07/30 11:42:30;;;;;;;4.60;1.50;;;24.00;99.90;;;;;;5048256;28;20128;-61
2022/07/30 11:45:14;;;;;;;2.50;1.65;;;24.10;99.90;;;;;;5048188;28;20045;-61
2022/07/30 11:47:46;;;;;;;4.53;1.70;;;24.20;99.90;;;;;;5047309;28;20070;-61
2022/07/30 11:50:33;;;;;;;6.53;2.17;;;24.30;99.90;;;;;;5048354;28;20102;-61
2022/07/30 11:53:08;;;;;;;4.85;1.52;;;24.40;99.90;;;;;;5047651;28;20052;-61
2022/07/30 11:55:37;;;;;;;5.78;2.33;;;24.50;99.90;;;;;;5048319;28;20052;-61
2022/07/30 11:58:09;;;;;;;7.80;2.40;;;24.50;99.90;;;;;;5046592;28;20281;-61
2022/07/30 12:00:41;;;;;;;2.72;1.88;;;24.40;99.90;;;;;;5047380;28;20049;-61
2022/07/30 12:03:12;;;;;;;3.15;1.58;;;24.30;99.90;;;;;;5047590;28;20047;-61
2022/07/30 12:05:38;;;;;;;4.95;2.50;;;24.20;99.90;;;;;;5047268;28;20049;-61
2022/07/30 12:08:05;;;;;;;4.70;1.85;;;24.20;99.90;;;;;;5046803;28;20052;-61
2022/07/30 12:10:31;;;;;;;2.75;1.92;;;24.30;99.90;;;;;;5048198;28;20080;-61
2022/07/30 12:13:11;;;;;;;3.40;2.00;;;24.40;99.90;;;;;;5047858;28;20099;-61
2022/07/30 12:15:41;;;;;;;4.97;1.98;;;24.60;99.90;;;;;;5047042;28;20044;-61
2022/07/30 12:18:07;;;;;;;9.13;2.40;;;24.70;99.90;;;;;;5047575;28;20044;-64
2022/07/30 12:20:33;;;;;;;3.53;2.10;;;24.80;99.90;;;;;;5047646;28;20041;-65
2022/07/30 12:23:01;;;;;;;2.58;1.70;;;24.80;99.90;;;;;;5047249;28;20044;-66
2022/07/30 12:25:27;;;;;;;7.20;2.25;;;24.70;99.90;;;;;;5047653;28;20124;-66
2022/07/30 12:27:54;;;;;;;6.03;1.75;;;23.70;99.90;;;;;;5047329;28;20045;-66
2022/07/30 12:30:20;;;;;;;1.77;1.55;;;24.50;99.90;;;;;;5046849;28;20088;-66
2022/07/30 12:32:46;;;;;;;4.57;1.60;;;24.50;99.90;;;;;;5045995;28;20064;-69
2022/07/30 12:35:12;;;;;;;2.75;1.73;;;24.60;99.90;;;;;;5046987;28;20052;-68
2022/07/30 12:37:39;;;;;;;3.47;1.60;;;24.60;99.90;;;;;;5047372;28;20044;-67
2022/07/30 12:40:10;;;;;;;2.33;1.65;;;24.80;99.90;;;;;;5047059;28;20059;-71
2022/07/30 12:42:37;;;;;;;3.55;1.70;;;24.80;99.90;;;;;;5045341;28;20049;-68
2022/07/30 12:45:05;;;;;;;3.40;1.58;;;24.90;99.90;;;;;;5047364;28;20083;-68
2022/07/30 12:47:32;;;;;;;4.80;1.45;;;24.90;99.90;;;;;;5046188;28;20057;-68
2022/07/30 12:50:00;;;;;;;2.10;1.67;;;24.90;99.90;;;;;;5046342;28;20123;-64
2022/07/30 12:52:31;;;;;;;4.32;1.50;;;24.90;99.90;;;;;;5047131;28;20124;-66